sensor_id;sensor_type;location;lat;lon;timestamp;pressure;altitude;pressure_sealevel;temperature
49154;BMP280;49455;52.252;9.124;2023-06-14T00:01:27;99710.09;;;17.25
49154;BMP280;49455;52.252;9.124;2023-06-14T00:06:29;99714.19;;;17.12
49154;BMP280;49455;52.252;9.124;2023-06-14T00:11:29;99709.00;;;17.04
49154;BMP280;49455;52.252;9.124;2023-06-14T00:16:31;99719.94;;;16.95
49154;BMP280;49455;52.252;9.124;2023-06-14T00:21:32;99715.63;;;16.85
49154;BMP280;49455;52.252;9.124;2023-06-14T00:26:32;99713.03;;;16.81
49154;BMP280;49455;52.252;9.124;2023-06-14T00:31:32;99727.78;;;16.75
49154;BMP280;49455;52.252;9.124;2023-06-14T00:36:33;99723.34;;;16.68
49154;BMP280;49455;52.252;9.124;2023-06-14T00:41:33;99724.84;;;16.60
49154;BMP280;49455;52.252;9.124;2023-06-14T00:46:34;99728.91;;;16.55
49154;BMP280;49455;52.252;9.124;2023-06-14T00:51:34;99729.50;;;16.50
49154;BMP280;49455;52.252;9.124;2023-06-14T00:56:38;99729.09;;;16.39
49154;BMP280;49455;52.252;9.124;2023-06-14T01:01:39;99735.91;;;16.34
49154;BMP280;49455;52.252;9.124;2023-06-14T01:17:09;99745.69;;;16.14
49154;BMP280;49455;52.252;9.124;2023-06-14T01:22:09;99740.59;;;16.03
49154;BMP280;49455;52.252;9.124;2023-06-14T01:27:11;99743.13;;;15.97
49154;BMP280;49455;52.252;9.124;2023-06-14T01:32:12;99745.88;;;15.97
49154;BMP280;49455;52.252;9.124;2023-06-14T01:37:13;99747.41;;;15.98
49154;BMP280;49455;52.252;9.124;2023-06-14T01:42:14;99740.72;;;15.99
49154;BMP280;49455;52.252;9.124;2023-06-14T01:47:16;99731.13;;;15.95
49154;BMP280;49455;52.252;9.124;2023-06-14T01:52:16;99733.22;;;15.91
49154;BMP280;49455;52.252;9.124;2023-06-14T01:57:17;99741.22;;;15.85
49154;BMP280;49455;52.252;9.124;2023-06-14T02:02:18;99741.03;;;15.79
49154;BMP280;49455;52.252;9.124;2023-06-14T02:07:18;99736.81;;;15.78
49154;BMP280;49455;52.252;9.124;2023-06-14T02:12:18;99740.97;;;15.70
49154;BMP280;49455;52.252;9.124;2023-06-14T02:17:19;99745.03;;;15.66
49154;BMP280;49455;52.252;9.124;2023-06-14T02:22:19;99769.19;;;15.54
49154;BMP280;49455;52.252;9.124;2023-06-14T02:27:20;99759.69;;;15.46
49154;BMP280;49455;52.252;9.124;2023-06-14T02:32:20;99762.53;;;15.43
49154;BMP280;49455;52.252;9.124;2023-06-14T02:37:21;99767.47;;;15.35
49154;BMP280;49455;52.252;9.124;2023-06-14T02:42:21;99772.63;;;15.33
49154;BMP280;49455;52.252;9.124;2023-06-14T02:47:21;99765.75;;;15.28
49154;BMP280;49455;52.252;9.124;2023-06-14T02:52:22;99765.75;;;15.28
49154;BMP280;49455;52.252;9.124;2023-06-14T02:57:22;99773.84;;;15.19
49154;BMP280;49455;52.252;9.124;2023-06-14T03:02:23;99783.34;;;15.15
49154;BMP280;49455;52.252;9.124;2023-06-14T03:07:24;99781.47;;;15.11
49154;BMP280;49455;52.252;9.124;2023-06-14T03:12:26;99790.31;;;15.03
49154;BMP280;49455;52.252;9.124;2023-06-14T03:17:26;99779.63;;;14.96
49154;BMP280;49455;52.252;9.124;2023-06-14T03:22:27;99788.78;;;14.89
49154;BMP280;49455;52.252;9.124;2023-06-14T03:27:27;99784.22;;;14.86
49154;BMP280;49455;52.252;9.124;2023-06-14T03:32:28;99787.03;;;14.82
49154;BMP280;49455;52.252;9.124;2023-06-14T03:37:28;99793.72;;;14.81
49154;BMP280;49455;52.252;9.124;2023-06-14T03:42:30;99795.00;;;14.77
49154;BMP280;49455;52.252;9.124;2023-06-14T03:47:30;99806.84;;;14.70
49154;BMP280;49455;52.252;9.124;2023-06-14T03:52:31;99811.22;;;14.68
49154;BMP280;49455;52.252;9.124;2023-06-14T03:57:31;99813.59;;;14.65
49154;BMP280;49455;52.252;9.124;2023-06-14T04:02:32;99829.97;;;14.65
49154;BMP280;49455;52.252;9.124;2023-06-14T04:07:34;99831.25;;;14.61
49154;BMP280;49455;52.252;9.124;2023-06-14T04:12:34;99851.53;;;15.66
49154;BMP280;49455;52.252;9.124;2023-06-14T04:17:36;99856.84;;;17.23
49154;BMP280;49455;52.252;9.124;2023-06-14T04:22:37;99836.66;;;16.36
49154;BMP280;49455;52.252;9.124;2023-06-14T04:27:40;99854.72;;;15.13
49154;BMP280;49455;52.252;9.124;2023-06-14T04:32:40;99864.41;;;15.01
49154;BMP280;49455;52.252;9.124;2023-06-14T04:37:43;99858.97;;;15.01
49154;BMP280;49455;52.252;9.124;2023-06-14T04:42:44;99859.94;;;15.07
49154;BMP280;49455;52.252;9.124;2023-06-14T04:47:44;99850.97;;;15.07
49154;BMP280;49455;52.252;9.124;2023-06-14T04:52:45;99871.63;;;15.21
49154;BMP280;49455;52.252;9.124;2023-06-14T04:57:45;99871.75;;;15.30
49154;BMP280;49455;52.252;9.124;2023-06-14T05:02:46;99874.25;;;15.37
49154;BMP280;49455;52.252;9.124;2023-06-14T05:07:47;99878.50;;;15.38
49154;BMP280;49455;52.252;9.124;2023-06-14T05:12:48;99883.78;;;15.45
49154;BMP280;49455;52.252;9.124;2023-06-14T05:17:49;99882.13;;;15.48
49154;BMP280;49455;52.252;9.124;2023-06-14T05:22:51;99888.78;;;15.59
49154;BMP280;49455;52.252;9.124;2023-06-14T05:27:52;99894.66;;;15.71
49154;BMP280;49455;52.252;9.124;2023-06-14T05:32:52;99890.59;;;15.75
49154;BMP280;49455;52.252;9.124;2023-06-14T05:37:53;99895.41;;;15.84
49154;BMP280;49455;52.252;9.124;2023-06-14T05:42:53;99893.34;;;15.75
49154;BMP280;49455;52.252;9.124;2023-06-14T05:47:53;99896.06;;;15.75
49154;BMP280;49455;52.252;9.124;2023-06-14T05:52:54;99900.19;;;15.80
49154;BMP280;49455;52.252;9.124;2023-06-14T05:57:54;99902.72;;;15.87
49154;BMP280;49455;52.252;9.124;2023-06-14T06:02:55;99905.06;;;16.10
49154;BMP280;49455;52.252;9.124;2023-06-14T06:07:55;99905.50;;;16.22
49154;BMP280;49455;52.252;9.124;2023-06-14T06:12:55;99912.19;;;16.43
49154;BMP280;49455;52.252;9.124;2023-06-14T06:17:56;99912.25;;;16.52
49154;BMP280;49455;52.252;9.124;2023-06-14T06:22:57;99929.50;;;16.62
49154;BMP280;49455;52.252;9.124;2023-06-14T06:27:57;99921.84;;;16.78
49154;BMP280;49455;52.252;9.124;2023-06-14T06:32:58;99927.09;;;16.86
49154;BMP280;49455;52.252;9.124;2023-06-14T06:37:59;99923.44;;;16.89
49154;BMP280;49455;52.252;9.124;2023-06-14T06:42:59;99928.50;;;16.90
49154;BMP280;49455;52.252;9.124;2023-06-14T06:48:01;99938.84;;;16.95
49154;BMP280;49455;52.252;9.124;2023-06-14T06:53:02;99940.00;;;16.85
49154;BMP280;49455;52.252;9.124;2023-06-14T06:58:02;99938.41;;;17.28
49154;BMP280;49455;52.252;9.124;2023-06-14T07:03:02;99939.06;;;17.32
49154;BMP280;49455;52.252;9.124;2023-06-14T07:08:03;99939.97;;;17.38
49154;BMP280;49455;52.252;9.124;2023-06-14T07:13:03;99947.19;;;17.54
49154;BMP280;49455;52.252;9.124;2023-06-14T07:18:04;99946.31;;;17.75
49154;BMP280;49455;52.252;9.124;2023-06-14T07:23:04;99952.63;;;18.13
49154;BMP280;49455;52.252;9.124;2023-06-14T07:28:05;99951.13;;;18.21
49154;BMP280;49455;52.252;9.124;2023-06-14T07:33:05;99960.72;;;18.07
49154;BMP280;49455;52.252;9.124;2023-06-14T07:38:05;99953.44;;;18.59
49154;BMP280;49455;52.252;9.124;2023-06-14T07:43:08;99961.47;;;18.81
49154;BMP280;49455;52.252;9.124;2023-06-14T07:48:12;99958.00;;;18.44
49154;BMP280;49455;52.252;9.124;2023-06-14T07:53:12;99962.97;;;18.91
49154;BMP280;49455;52.252;9.124;2023-06-14T07:58:13;99973.31;;;19.05
49154;BMP280;49455;52.252;9.124;2023-06-14T08:03:13;99967.81;;;19.05
49154;BMP280;49455;52.252;9.124;2023-06-14T08:08:14;99974.56;;;18.95
49154;BMP280;49455;52.252;9.124;2023-06-14T08:13:14;99959.41;;;19.42
49154;BMP280;49455;52.252;9.124;2023-06-14T08:18:15;99960.41;;;19.63
49154;BMP280;49455;52.252;9.124;2023-06-14T08:23:15;99966.13;;;19.74
49154;BMP280;49455;52.252;9.124;2023-06-14T08:28:15;99975.41;;;20.01
49154;BMP280;49455;52.252;9.124;2023-06-14T08:33:16;99977.56;;;19.49
49154;BMP280;49455;52.252;9.124;2023-06-14T08:38:16;99973.88;;;19.52
49154;BMP280;49455;52.252;9.124;2023-06-14T08:43:17;99983.16;;;19.64
49154;BMP280;49455;52.252;9.124;2023-06-14T08:48:18;99980.69;;;19.90
49154;BMP280;49455;52.252;9.124;2023-06-14T08:53:18;99974.72;;;20.15
49154;BMP280;49455;52.252;9.124;2023-06-14T08:58:19;99986.75;;;20.18
49154;BMP280;49455;52.252;9.124;2023-06-14T09:03:19;99991.28;;;20.45
49154;BMP280;49455;52.252;9.124;2023-06-14T09:08:19;99990.41;;;20.24
49154;BMP280;49455;52.252;9.124;2023-06-14T09:13:20;99985.41;;;20.13
49154;BMP280;49455;52.252;9.124;2023-06-14T09:18:20;99986.47;;;20.69
49154;BMP280;49455;52.252;9.124;2023-06-14T09:23:21;99992.09;;;21.40
49154;BMP280;49455;52.252;9.124;2023-06-14T09:28:27;99992.53;;;21.03
49154;BMP280;49455;52.252;9.124;2023-06-14T09:33:27;99994.91;;;21.25
49154;BMP280;49455;52.252;9.124;2023-06-14T09:38:27;99989.13;;;21.23
49154;BMP280;49455;52.252;9.124;2023-06-14T09:43:28;99992.00;;;21.69
49154;BMP280;49455;52.252;9.124;2023-06-14T09:48:28;99990.69;;;22.26
49154;BMP280;49455;52.252;9.124;2023-06-14T09:53:30;99995.44;;;22.05
49154;BMP280;49455;52.252;9.124;2023-06-14T09:58:34;99992.97;;;22.07
49154;BMP280;49455;52.252;9.124;2023-06-14T10:03:38;99991.44;;;22.26
49154;BMP280;49455;52.252;9.124;2023-06-14T10:08:39;99991.09;;;22.19
49154;BMP280;49455;52.252;9.124;2023-06-14T10:13:40;99987.63;;;22.24
49154;BMP280;49455;52.252;9.124;2023-06-14T10:18:59;99998.06;;;22.34
49154;BMP280;49455;52.252;9.124;2023-06-14T10:24:04;99989.34;;;22.42
49154;BMP280;49455;52.252;9.124;2023-06-14T10:29:08;99993.50;;;22.57
49154;BMP280;49455;52.252;9.124;2023-06-14T10:34:09;99985.03;;;22.41
49154;BMP280;49455;52.252;9.124;2023-06-14T10:39:17;99968.19;;;23.39
49154;BMP280;49455;52.252;9.124;2023-06-14T10:49:41;99958.75;;;23.57
49154;BMP280;49455;52.252;9.124;2023-06-14T10:55:05;99966.47;;;23.41
49154;BMP280;49455;52.252;9.124;2023-06-14T11:00:07;99957.00;;;23.59
49154;BMP280;49455;52.252;9.124;2023-06-14T11:05:08;99954.63;;;24.17
49154;BMP280;49455;52.252;9.124;2023-06-14T11:10:38;99961.13;;;23.92
49154;BMP280;49455;52.252;9.124;2023-06-14T11:15:46;99963.19;;;24.14
49154;BMP280;49455;52.252;9.124;2023-06-14T11:20:46;99959.03;;;23.64
49154;BMP280;49455;52.252;9.124;2023-06-14T11:25:51;99951.28;;;23.80
49154;BMP280;49455;52.252;9.124;2023-06-14T11:31:01;99951.47;;;23.59
49154;BMP280;49455;52.252;9.124;2023-06-14T11:36:03;99955.00;;;23.60
49154;BMP280;49455;52.252;9.124;2023-06-14T11:41:04;99952.66;;;24.46
49154;BMP280;49455;52.252;9.124;2023-06-14T11:46:04;99959.94;;;24.83
49154;BMP280;49455;52.252;9.124;2023-06-14T11:51:04;99948.47;;;25.25
49154;BMP280;49455;52.252;9.124;2023-06-14T11:56:05;99951.16;;;25.95
49154;BMP280;49455;52.252;9.124;2023-06-14T12:01:06;99960.47;;;23.54
49154;BMP280;49455;52.252;9.124;2023-06-14T12:06:07;99958.19;;;24.35
49154;BMP280;49455;52.252;9.124;2023-06-14T12:11:14;99947.56;;;25.00
49154;BMP280;49455;52.252;9.124;2023-06-14T12:16:15;99959.44;;;23.46
49154;BMP280;49455;52.252;9.124;2023-06-14T12:21:15;99954.38;;;24.99
49154;BMP280;49455;52.252;9.124;2023-06-14T12:26:19;99953.63;;;24.88
49154;BMP280;49455;52.252;9.124;2023-06-14T12:31:19;99952.91;;;24.76
49154;BMP280;49455;52.252;9.124;2023-06-14T12:36:20;99951.66;;;25.99
49154;BMP280;49455;52.252;9.124;2023-06-14T12:41:21;99951.41;;;24.47
49154;BMP280;49455;52.252;9.124;2023-06-14T12:46:22;99948.59;;;24.64
49154;BMP280;49455;52.252;9.124;2023-06-14T12:51:22;99944.91;;;25.42
49154;BMP280;49455;52.252;9.124;2023-06-14T12:56:23;99944.19;;;25.82
49154;BMP280;49455;52.252;9.124;2023-06-14T13:01:23;99954.97;;;26.27
49154;BMP280;49455;52.252;9.124;2023-06-14T13:06:23;99938.34;;;26.22
49154;BMP280;49455;52.252;9.124;2023-06-14T13:11:24;99935.63;;;26.46
49154;BMP280;49455;52.252;9.124;2023-06-14T13:16:24;99930.19;;;27.27
49154;BMP280;49455;52.252;9.124;2023-06-14T13:21:25;99944.38;;;26.56
49154;BMP280;49455;52.252;9.124;2023-06-14T13:26:25;99940.09;;;26.25
49154;BMP280;49455;52.252;9.124;2023-06-14T13:31:25;99937.72;;;26.34
49154;BMP280;49455;52.252;9.124;2023-06-14T13:36:26;99932.94;;;26.35
49154;BMP280;49455;52.252;9.124;2023-06-14T13:41:27;99929.25;;;27.00
49154;BMP280;49455;52.252;9.124;2023-06-14T13:46:28;99920.25;;;26.70
49154;BMP280;49455;52.252;9.124;2023-06-14T13:51:28;99915.97;;;26.69
49154;BMP280;49455;52.252;9.124;2023-06-14T13:56:29;99922.44;;;27.01
49154;BMP280;49455;52.252;9.124;2023-06-14T14:01:29;99911.59;;;26.73
49154;BMP280;49455;52.252;9.124;2023-06-14T14:06:30;99912.63;;;27.70
49154;BMP280;49455;52.252;9.124;2023-06-14T14:11:30;99907.38;;;26.91
49154;BMP280;49455;52.252;9.124;2023-06-14T14:16:31;99911.63;;;26.49
49154;BMP280;49455;52.252;9.124;2023-06-14T14:21:31;99900.84;;;27.45
49154;BMP280;49455;52.252;9.124;2023-06-14T14:26:31;99906.38;;;26.40
49154;BMP280;49455;52.252;9.124;2023-06-14T14:31:32;99899.50;;;26.71
49154;BMP280;49455;52.252;9.124;2023-06-14T14:36:32;99907.25;;;27.21
49154;BMP280;49455;52.252;9.124;2023-06-14T14:41:33;99896.06;;;27.78
49154;BMP280;49455;52.252;9.124;2023-06-14T14:46:34;99909.44;;;26.06
49154;BMP280;49455;52.252;9.124;2023-06-14T14:51:35;99900.69;;;26.26
49154;BMP280;49455;52.252;9.124;2023-06-14T14:56:35;99913.28;;;25.62
49154;BMP280;49455;52.252;9.124;2023-06-14T15:01:35;99908.09;;;24.50
49154;BMP280;49455;52.252;9.124;2023-06-14T15:06:37;99907.56;;;24.51
49154;BMP280;49455;52.252;9.124;2023-06-14T15:11:37;99904.66;;;25.18
49154;BMP280;49455;52.252;9.124;2023-06-14T15:16:41;99902.81;;;26.45
49154;BMP280;49455;52.252;9.124;2023-06-14T15:21:42;99894.78;;;25.75
49154;BMP280;49455;52.252;9.124;2023-06-14T15:26:42;99898.69;;;25.55
49154;BMP280;49455;52.252;9.124;2023-06-14T15:31:43;99902.78;;;24.57
49154;BMP280;49455;52.252;9.124;2023-06-14T15:36:44;99894.97;;;24.00
49154;BMP280;49455;52.252;9.124;2023-06-14T15:41:45;99903.00;;;23.75
49154;BMP280;49455;52.252;9.124;2023-06-14T15:46:45;99909.88;;;24.47
49154;BMP280;49455;52.252;9.124;2023-06-14T15:51:45;99899.47;;;25.45
49154;BMP280;49455;52.252;9.124;2023-06-14T15:56:46;99900.56;;;26.13
49154;BMP280;49455;52.252;9.124;2023-06-14T16:01:46;99902.97;;;25.51
49154;BMP280;49455;52.252;9.124;2023-06-14T16:06:46;99902.28;;;25.86
49154;BMP280;49455;52.252;9.124;2023-06-14T16:11:47;99888.59;;;25.94
49154;BMP280;49455;52.252;9.124;2023-06-14T16:16:48;99885.19;;;25.71
49154;BMP280;49455;52.252;9.124;2023-06-14T16:21:48;99883.09;;;26.18
49154;BMP280;49455;52.252;9.124;2023-06-14T16:26:48;99877.53;;;26.18
49154;BMP280;49455;52.252;9.124;2023-06-14T16:31:49;99876.09;;;25.76
49154;BMP280;49455;52.252;9.124;2023-06-14T16:36:49;99879.72;;;25.95
49154;BMP280;49455;52.252;9.124;2023-06-14T16:41:50;99879.63;;;26.61
49154;BMP280;49455;52.252;9.124;2023-06-14T16:46:50;99890.00;;;25.23
49154;BMP280;49455;52.252;9.124;2023-06-14T16:51:50;99886.81;;;24.97
49154;BMP280;49455;52.252;9.124;2023-06-14T16:56:51;99898.59;;;25.20
49154;BMP280;49455;52.252;9.124;2023-06-14T17:01:51;99902.22;;;24.92
49154;BMP280;49455;52.252;9.124;2023-06-14T17:06:52;99898.59;;;25.67
49154;BMP280;49455;52.252;9.124;2023-06-14T17:11:52;99892.97;;;25.78
49154;BMP280;49455;52.252;9.124;2023-06-14T17:16:52;99905.16;;;25.69
49154;BMP280;49455;52.252;9.124;2023-06-14T17:21:53;99904.31;;;24.19
49154;BMP280;49455;52.252;9.124;2023-06-14T17:26:54;99908.56;;;24.31
49154;BMP280;49455;52.252;9.124;2023-06-14T17:31:54;99909.06;;;24.07
49154;BMP280;49455;52.252;9.124;2023-06-14T17:36:55;99912.31;;;23.89
49154;BMP280;49455;52.252;9.124;2023-06-14T17:41:55;99921.81;;;23.60
49154;BMP280;49455;52.252;9.124;2023-06-14T17:46:56;99916.75;;;23.53
49154;BMP280;49455;52.252;9.124;2023-06-14T17:51:56;99913.59;;;23.23
49154;BMP280;49455;52.252;9.124;2023-06-14T17:56:56;99921.03;;;23.05
49154;BMP280;49455;52.252;9.124;2023-06-14T18:01:57;99913.53;;;23.17
49154;BMP280;49455;52.252;9.124;2023-06-14T18:06:57;99915.78;;;23.13
49154;BMP280;49455;52.252;9.124;2023-06-14T18:11:57;99919.22;;;22.97
49154;BMP280;49455;52.252;9.124;2023-06-14T18:16:58;99911.59;;;22.80
49154;BMP280;49455;52.252;9.124;2023-06-14T18:21:58;99924.47;;;22.89
49154;BMP280;49455;52.252;9.124;2023-06-14T18:26:59;99919.06;;;22.74
49154;BMP280;49455;52.252;9.124;2023-06-14T18:31:59;99915.22;;;22.60
49154;BMP280;49455;52.252;9.124;2023-06-14T18:36:59;99914.78;;;22.42
49154;BMP280;49455;52.252;9.124;2023-06-14T18:42:00;99920.41;;;22.53
49154;BMP280;49455;52.252;9.124;2023-06-14T18:47:00;99917.56;;;22.16
49154;BMP280;49455;52.252;9.124;2023-06-14T18:52:00;99915.88;;;21.98
49154;BMP280;49455;52.252;9.124;2023-06-14T18:57:01;99923.06;;;21.69
49154;BMP280;49455;52.252;9.124;2023-06-14T19:02:02;99913.09;;;21.51
49154;BMP280;49455;52.252;9.124;2023-06-14T19:07:02;99921.31;;;21.31
49154;BMP280;49455;52.252;9.124;2023-06-14T19:12:04;99917.59;;;21.14
49154;BMP280;49455;52.252;9.124;2023-06-14T19:17:04;99918.19;;;20.88
49154;BMP280;49455;52.252;9.124;2023-06-14T19:22:05;99925.88;;;20.69
49154;BMP280;49455;52.252;9.124;2023-06-14T19:27:05;99924.28;;;20.48
49154;BMP280;49455;52.252;9.124;2023-06-14T19:32:06;99925.03;;;20.34
49154;BMP280;49455;52.252;9.124;2023-06-14T19:37:07;99930.88;;;20.12
49154;BMP280;49455;52.252;9.124;2023-06-14T19:42:07;99940.03;;;19.94
49154;BMP280;49455;52.252;9.124;2023-06-14T19:47:07;99939.38;;;19.75
49154;BMP280;49455;52.252;9.124;2023-06-14T19:52:08;99944.50;;;19.67
49154;BMP280;49455;52.252;9.124;2023-06-14T19:57:08;99938.97;;;19.43
49154;BMP280;49455;52.252;9.124;2023-06-14T20:02:09;99949.44;;;19.21
49154;BMP280;49455;52.252;9.124;2023-06-14T20:07:09;99957.28;;;19.04
49154;BMP280;49455;52.252;9.124;2023-06-14T20:12:09;99955.66;;;18.88
49154;BMP280;49455;52.252;9.124;2023-06-14T20:17:10;99961.00;;;18.73
49154;BMP280;49455;52.252;9.124;2023-06-14T20:22:10;99962.09;;;18.67
49154;BMP280;49455;52.252;9.124;2023-06-14T20:27:11;99961.66;;;18.59
49154;BMP280;49455;52.252;9.124;2023-06-14T20:32:11;99959.81;;;18.56
49154;BMP280;49455;52.252;9.124;2023-06-14T20:37:11;99959.97;;;18.43
49154;BMP280;49455;52.252;9.124;2023-06-14T20:42:12;99965.91;;;18.14
49154;BMP280;49455;52.252;9.124;2023-06-14T20:47:12;99965.13;;;18.23
49154;BMP280;49455;52.252;9.124;2023-06-14T20:52:14;99965.31;;;18.28
49154;BMP280;49455;52.252;9.124;2023-06-14T20:57:14;99956.72;;;17.99
49154;BMP280;49455;52.252;9.124;2023-06-14T21:02:15;99968.00;;;17.92
49154;BMP280;49455;52.252;9.124;2023-06-14T21:07:16;99966.13;;;17.79
49154;BMP280;49455;52.252;9.124;2023-06-14T21:12:16;99974.81;;;17.78
49154;BMP280;49455;52.252;9.124;2023-06-14T21:17:16;99972.22;;;17.84
49154;BMP280;49455;52.252;9.124;2023-06-14T21:22:17;99964.72;;;17.66
49154;BMP280;49455;52.252;9.124;2023-06-14T21:27:17;99976.84;;;17.46
49154;BMP280;49455;52.252;9.124;2023-06-14T21:32:18;99969.34;;;17.38
49154;BMP280;49455;52.252;9.124;2023-06-14T21:37:18;99976.97;;;17.43
49154;BMP280;49455;52.252;9.124;2023-06-14T21:42:18;99972.47;;;17.27
49154;BMP280;49455;52.252;9.124;2023-06-14T21:47:19;99961.63;;;17.45
49154;BMP280;49455;52.252;9.124;2023-06-14T21:52:19;99963.03;;;17.59
49154;BMP280;49455;52.252;9.124;2023-06-14T21:57:20;99969.38;;;17.47
49154;BMP280;49455;52.252;9.124;2023-06-14T22:02:20;99973.97;;;17.59
49154;BMP280;49455;52.252;9.124;2023-06-14T22:07:21;99970.94;;;17.57
49154;BMP280;49455;52.252;9.124;2023-06-14T22:12:21;99970.47;;;17.59
49154;BMP280;49455;52.252;9.124;2023-06-14T22:17:22;99969.88;;;17.64
49154;BMP280;49455;52.252;9.124;2023-06-14T22:22:22;99964.09;;;17.62
49154;BMP280;49455;52.252;9.124;2023-06-14T22:27:23;99966.84;;;17.62
49154;BMP280;49455;52.252;9.124;2023-06-14T22:32:26;99970.63;;;17.55
49154;BMP280;49455;52.252;9.124;2023-06-14T22:37:27;99967.09;;;17.45
49154;BMP280;49455;52.252;9.124;2023-06-14T22:42:27;99969.06;;;17.45
49154;BMP280;49455;52.252;9.124;2023-06-14T22:47:28;99969.66;;;17.49
49154;BMP280;49455;52.252;9.124;2023-06-14T22:52:29;99965.75;;;17.50
49154;BMP280;49455;52.252;9.124;2023-06-14T22:57:29;99966.00;;;17.43
49154;BMP280;49455;52.252;9.124;2023-06-14T23:02:29;99961.81;;;17.29
49154;BMP280;49455;52.252;9.124;2023-06-14T23:07:30;99961.31;;;17.12
49154;BMP280;49455;52.252;9.124;2023-06-14T23:12:30;99972.44;;;16.96
49154;BMP280;49455;52.252;9.124;2023-06-14T23:17:31;99970.09;;;16.85
49154;BMP280;49455;52.252;9.124;2023-06-14T23:22:31;99969.72;;;16.74
49154;BMP280;49455;52.252;9.124;2023-06-14T23:27:33;99971.81;;;16.70
49154;BMP280;49455;52.252;9.124;2023-06-14T23:32:33;99971.44;;;16.46
49154;BMP280;49455;52.252;9.124;2023-06-14T23:37:34;99984.09;;;16.18
49154;BMP280;49455;52.252;9.124;2023-06-14T23:42:34;99979.00;;;15.94
49154;BMP280;49455;52.252;9.124;2023-06-14T23:47:38;99970.47;;;15.92
49154;BMP280;49455;52.252;9.124;2023-06-14T23:52:38;99970.25;;;15.74
49154;BMP280;49455;52.252;9.124;2023-06-14T23:57:38;99975.06;;;15.70
